Time;durP1;ratioP1;P1;durP2;ratioP2;P2;SDS_P1;SDS_P2;PMS_P1;PMS_P2;Temp;Humidity;BMP_temperature;BMP_pressure;BME280_temperature;BME280_humidity;BME280_pressure;Samples;Min_cycle;Max_cycle;Signal;HPM_P1;HPM_P2
2021/04/15 00:01:19;;;;;;;11.10;8.65;;;;;;;8.86;63.29;101074.28;5069384;28;20499;-79
2021/04/15 00:04:23;;;;;;;10.65;8.35;;;;;;;8.77;63.38;101073.09;5060469;28;20044;-81
2021/04/15 00:07:27;;;;;;;9.40;8.20;;;;;;;8.69;63.82;101066.56;5051681;28;20396;-79
2021/04/15 00:10:39;;;;;;;11.00;8.23;;;;;;;8.64;63.69;101069.53;5092889;28;20051;-80
2021/04/15 00:13:51;;;;;;;10.82;8.52;;;;;;;8.58;63.53;101063.75;5080907;28;20107;-79
2021/04/15 00:16:55;;;;;;;9.70;8.18;;;;;;;8.48;63.62;101060.84;5072377;28;20043;-79
2021/04/15 00:19:59;;;;;;;11.90;8.00;;;;;;;8.43;64.08;101061.16;5070247;28;20407;-79
2021/04/15 00:23:04;;;;;;;11.73;8.30;;;;;;;8.36;64.38;101059.00;5052819;28;20052;-80
2021/04/15 00:26:14;;;;;;;11.43;8.10;;;;;;;8.46;64.27;101060.09;5064681;28;20052;-80
2021/04/15 00:29:18;;;;;;;10.02;7.25;;;;;;;8.44;64.72;101051.31;5082667;28;20067;-79
2021/04/15 00:32:23;;;;;;;12.95;8.10;;;;;;;8.42;63.84;101051.41;5073626;28;20048;-77
2021/04/15 00:35:27;;;;;;;10.25;7.18;;;;;;;8.45;63.70;101047.66;5058844;28;20051;-78
2021/04/15 00:38:32;;;;;;;10.38;7.97;;;;;;;8.47;64.19;101051.09;5072239;28;20106;-81
2021/04/15 00:41:37;;;;;;;8.55;7.57;;;;;;;8.42;63.73;101038.03;5073098;28;20056;-78
2021/04/15 00:44:41;;;;;;;11.60;7.20;;;;;;;8.45;63.79;101037.84;5070643;28;20415;-79
2021/04/15 00:47:52;;;;;;;8.65;6.65;;;;;;;8.42;62.84;101043.38;5062334;28;20518;-80
2021/04/15 00:51:02;;;;;;;9.00;6.60;;;;;;;8.37;61.84;101037.50;5063563;28;20047;-80
2021/04/15 00:54:11;;;;;;;9.75;6.38;;;;;;;8.33;61.45;101032.47;5075570;28;20051;-81
2021/04/15 00:57:24;;;;;;;7.53;6.15;;;;;;;8.22;61.62;101027.78;5064035;28;20052;-80
2021/04/15 01:00:32;;;;;;;8.95;6.55;;;;;;;8.17;61.91;101037.09;5052561;28;20055;-80
2021/04/15 01:03:37;;;;;;;8.20;6.68;;;;;;;8.13;62.50;101033.75;5070167;28;20063;-79
2021/04/15 01:06:42;;;;;;;8.13;6.75;;;;;;;8.10;62.51;101033.13;5065525;28;20047;-79
2021/04/15 01:09:48;;;;;;;8.20;6.97;;;;;;;8.03;62.73;101046.03;5063398;28;20044;-81
2021/04/15 01:13:16;;;;;;;7.07;6.38;;;;;;;8.02;62.88;101044.34;5074327;28;20051;-79
2021/04/15 01:16:27;;;;;;;9.27;7.03;;;;;;;7.99;63.26;101044.53;5063169;28;20048;-81
2021/04/15 01:20:12;;;;;;;9.38;6.93;;;;;;;7.91;63.50;101044.16;5075104;28;20047;-79
2021/04/15 01:23:22;;;;;;;10.02;6.70;;;;;;;7.99;63.57;101049.88;5074927;28;20428;-77
2021/04/15 01:26:53;;;;;;;11.93;6.70;;;;;;;7.93;63.50;101058.28;5075009;28;20055;-80
2021/04/15 01:30:24;;;;;;;9.60;8.60;;;;;;;7.80;66.97;101055.56;5053104;28;20059;-78
2021/04/15 01:33:31;;;;;;;11.13;8.80;;;;;;;7.69;68.64;101052.72;5070734;28;20059;-80
2021/04/15 01:36:45;;;;;;;14.07;8.57;;;;;;;7.57;69.61;101058.00;5071537;28;20047;-80
2021/04/15 01:39:59;;;;;;;13.00;8.73;;;;;;;7.39;70.56;101069.84;5051387;28;20383;-79
2021/04/15 01:43:24;;;;;;;11.98;8.27;;;;;;;7.31;70.69;101045.47;5065900;28;20110;-80
2021/04/15 01:46:33;;;;;;;11.27;8.70;;;;;;;7.16;71.56;101045.47;5083030;28;20051;-78
2021/04/15 01:49:42;;;;;;;11.43;9.27;;;;;;;7.11;71.34;101039.53;5078970;28;20063;-79
2021/04/15 01:52:51;;;;;;;11.32;8.75;;;;;;;7.09;71.15;101045.94;5066513;28;20052;-81
2021/04/15 01:56:05;;;;;;;8.82;7.93;;;;;;;7.12;71.42;101046.63;5074363;28;20514;-80
2021/04/15 01:59:36;;;;;;;9.90;8.90;;;;;;;7.07;71.68;101046.03;5081455;28;20040;-80
2021/04/15 02:02:45;;;;;;;10.82;8.40;;;;;;;7.07;71.80;101043.38;5071297;28;20047;-79
2021/04/15 02:05:55;;;;;;;9.75;8.63;;;;;;;7.01;72.11;101048.25;5082744;28;20396;-80
2021/04/15 02:09:04;;;;;;;11.07;8.75;;;;;;;6.99;72.58;101040.31;5076935;28;20404;-79
2021/04/15 02:12:15;;;;;;;11.65;8.23;;;;;;;6.96;72.56;101037.00;5081713;28;20043;-79
2021/04/15 02:15:28;;;;;;;9.82;8.82;;;;;;;7.03;72.52;101043.66;5094975;28;20055;-79
2021/04/15 02:18:24;;;;;;;8.90;8.00;;;;;;;6.99;72.56;101047.47;5080120;28;20047;-79
2021/04/15 02:21:47;;;;;;;11.48;8.18;;;;;;;7.08;72.58;101042.44;5061845;28;20052;-79
2021/04/15 02:25:30;;;;;;;10.75;8.23;;;;;;;7.03;72.37;101039.19;5050168;28;20051;-79
2021/04/15 02:28:59;;;;;;;9.88;8.85;;;;;;;7.10;71.41;101045.84;5079724;28;20063;-79
2021/04/15 02:32:21;;;;;;;10.48;8.45;;;;;;;7.14;71.16;101049.19;5060313;28;20521;-79
2021/04/15 02:35:48;;;;;;;9.85;8.85;;;;;;;7.18;70.89;101051.56;5072298;28;20039;-79
2021/04/15 02:38:56;;;;;;;9.80;8.80;;;;;;;7.15;71.25;101053.56;5049992;28;20502;-80
2021/04/15 02:42:10;;;;;;;10.55;9.30;;;;;;;7.25;71.13;101057.38;5062227;28;20043;-79
2021/04/15 02:45:26;;;;;;;10.30;8.82;;;;;;;7.21;72.10;101055.84;5062203;28;20043;-80
2021/04/15 02:48:36;;;;;;;11.73;9.35;;;;;;;7.13;71.88;101056.31;5076156;28;20051;-78
2021/04/15 02:51:46;;;;;;;10.10;8.50;;;;;;;7.08;71.87;101061.13;5056150;28;20051;-78
2021/04/15 02:54:56;;;;;;;10.55;9.20;;;;;;;6.91;72.54;101055.09;5074147;28;20063;-80
2021/04/15 02:58:21;;;;;;;10.23;8.00;;;;;;;6.73;73.06;101064.22;5079803;28;20059;-79
2021/04/15 03:01:31;;;;;;;11.43;8.98;;;;;;;6.62;73.73;101062.19;5062444;28;20515;-81
2021/04/15 03:04:39;;;;;;;10.57;9.57;;;;;;;6.62;73.26;101062.19;5060740;28;20051;-81
2021/04/15 03:07:45;;;;;;;10.52;9.43;;;;;;;6.74;73.39;101060.63;5084498;28;20047;-80
2021/04/15 03:11:17;;;;;;;11.48;9.27;;;;;;;6.67;73.79;101059.25;5070297;28;20414;-80
2021/04/15 03:14:28;;;;;;;12.20;9.38;;;;;;;6.77;73.50;101060.41;5068536;28;20059;-79
2021/04/15 03:17:38;;;;;;;11.05;9.25;;;;;;;6.91;73.08;101055.09;5093106;28;20062;-79
2021/04/15 03:20:50;;;;;;;11.45;9.43;;;;;;;6.97;72.42;101055.56;5050189;28;20502;-80
2021/04/15 03:24:03;;;;;;;10.30;8.85;;;;;;;7.01;71.56;101061.59;5049710;28;20051;-80
2021/04/15 03:27:22;;;;;;;;;;;;;;;6.96;70.69;101048.50;5061268;28;20055;-79
2021/04/15 03:30:39;;;;;;;12.13;9.52;;;;;;;6.97;70.36;101044.03;5072928;28;19916;-81
2021/04/15 03:34:02;;;;;;;9.90;8.93;;;;;;;6.90;71.10;101043.56;5060926;28;20510;-79
2021/04/15 03:37:14;;;;;;;11.50;9.52;;;;;;;6.87;71.14;101042.88;5061655;28;20056;-78
2021/04/15 03:40:26;;;;;;;10.63;9.50;;;;;;;6.96;71.19;101045.00;5053078;28;20064;-81
2021/04/15 03:43:41;;;;;;;10.23;8.38;;;;;;;6.99;71.36;101045.66;5052631;28;20051;-79
2021/04/15 03:46:59;;;;;;;14.85;10.02;;;;;;;6.91;70.65;101047.09;5069943;28;20051;-77
2021/04/15 03:50:07;;;;;;;14.38;9.98;;;;;;;6.91;70.16;101050.59;5071932;28;20063;-80
2021/04/15 03:53:17;;;;;;;12.23;10.23;;;;;;;6.90;70.20;101048.91;5085162;28;20043;-81
2021/04/15 03:56:30;;;;;;;11.68;9.48;;;;;;;6.95;69.61;101045.94;5073092;28;20102;-80
2021/04/15 04:00:03;;;;;;;10.27;9.15;;;;;;;6.99;69.75;101056.31;5064517;28;20067;-78
2021/04/15 04:03:20;;;;;;;10.50;9.23;;;;;;;7.01;70.02;101048.25;5083329;28;20063;-80
2021/04/15 04:06:26;;;;;;;10.52;9.45;;;;;;;6.93;71.56;101067.41;5065765;28;20506;-79
2021/04/15 04:09:39;;;;;;;11.95;9.43;;;;;;;6.98;71.95;101054.63;5065017;28;20391;-80
2021/04/15 04:12:47;;;;;;;13.20;10.88;;;;;;;6.86;72.74;101055.38;5083866;28;20059;-80
2021/04/15 04:16:00;;;;;;;10.27;9.18;;;;;;;6.93;73.05;101051.38;5084796;28;20043;-79
2021/04/15 04:19:20;;;;;;;15.10;10.48;;;;;;;6.84;73.61;101059.94;5096422;28;20051;-80
2021/04/15 04:22:45;;;;;;;12.20;10.95;;;;;;;6.85;74.71;101059.00;5064151;28;20044;-80
2021/04/15 04:26:01;;;;;;;12.90;10.75;;;;;;;6.78;75.45;101060.31;5073396;28;20055;-78
2021/04/15 04:29:32;;;;;;;12.13;9.95;;;;;;;6.86;75.80;101065.19;5079207;28;20118;-79
2021/04/15 04:32:38;;;;;;;12.00;10.73;;;;;;;6.65;76.02;101071.81;5075809;28;20063;-79
2021/04/15 04:35:47;;;;;;;13.43;10.18;;;;;;;6.54;76.15;101069.81;5069514;28;20106;-79
2021/04/15 04:38:55;;;;;;;12.20;10.90;;;;;;;6.51;76.28;101067.31;5054564;28;20059;-80
2021/04/15 04:42:09;;;;;;;12.55;10.70;;;;;;;6.44;76.39;101066.81;5063992;28;20047;-79
2021/04/15 04:45:17;;;;;;;13.40;10.95;;;;;;;6.32;76.80;101069.38;5070533;28;20153;-81
2021/04/15 04:48:32;;;;;;;12.23;11.02;;;;;;;6.43;77.17;101078.44;5065485;28;20044;-80
2021/04/15 04:51:51;;;;;;;17.10;11.77;;;;;;;6.45;76.73;101087.19;5080827;28;20059;-80
2021/04/15 04:54:57;;;;;;;11.88;10.13;;;;;;;6.60;76.65;101079.22;5084055;28;20477;-81
2021/04/15 04:58:07;;;;;;;13.82;11.25;;;;;;;6.65;76.21;101088.69;5083654;28;20058;-80
2021/04/15 05:01:12;;;;;;;13.25;11.48;;;;;;;6.79;75.87;101086.03;5051570;28;20063;-82
2021/04/15 05:04:20;;;;;;;13.05;11.43;;;;;;;6.77;74.14;101093.28;5052409;28;20372;-80
2021/04/15 05:07:27;;;;;;;11.55;9.70;;;;;;;6.78;72.26;101103.00;5056747;28;20407;-80
2021/04/15 05:10:33;;;;;;;22.45;11.30;;;;;;;6.77;72.30;101103.94;5079271;28;20075;-79
2021/04/15 05:13:41;;;;;;;13.45;12.05;;;;;;;6.76;75.09;101112.94;5063855;28;20387;-81
2021/04/15 05:16:53;;;;;;;17.83;11.48;;;;;;;6.75;75.67;101108.53;5090451;28;20509;-78
2021/04/15 05:20:07;;;;;;;13.32;10.95;;;;;;;6.59;75.33;101118.41;5083717;28;20047;-80
2021/04/15 05:23:25;;;;;;;14.00;11.77;;;;;;;6.43;75.29;101121.09;5095286;28;20486;-80
2021/04/15 05:26:34;;;;;;;13.85;11.43;;;;;;;6.52;74.80;101125.03;5083488;28;20071;-79
2021/04/15 05:29:42;;;;;;;16.50;11.15;;;;;;;6.52;73.99;101119.69;5068694;28;20056;-79
2021/04/15 05:32:51;;;;;;;16.60;10.35;;;;;;;6.47;71.77;101130.63;5083477;28;20059;-80
2021/04/15 05:36:08;;;;;;;12.88;10.00;;;;;;;6.49;71.74;101135.91;5075694;28;20399;-79
2021/04/15 05:39:18;;;;;;;14.73;9.93;;;;;;;6.41;71.32;101127.47;5094759;28;20051;-78
2021/04/15 05:42:33;;;;;;;13.13;10.18;;;;;;;6.43;71.97;101125.56;5083315;28;20094;-79
2021/04/15 05:45:41;;;;;;;12.80;10.35;;;;;;;6.35;72.17;101122.50;5082871;28;20091;-79
2021/04/15 05:48:54;;;;;;;13.43;10.02;;;;;;;6.36;72.61;101124.22;5060954;28;20399;-77
2021/04/15 05:52:37;;;;;;;10.30;9.30;;;;;;;6.36;72.71;101129.56;5062291;28;20044;-79
2021/04/15 05:55:50;;;;;;;11.77;9.65;;;;;;;6.35;72.78;101138.47;4991527;28;20052;-79
2021/04/15 05:59:19;;;;;;;13.88;9.77;;;;;;;6.36;72.87;101137.56;4990897;28;20439;-79
2021/04/15 06:02:46;;;;;;;12.80;10.57;;;;;;;6.32;74.02;101139.53;4997929;28;20053;-79
2021/04/15 06:06:21;;;;;;;15.23;9.80;;;;;;;6.33;74.32;101132.38;4979664;28;20065;-79
2021/04/15 06:09:26;;;;;;;12.48;10.65;;;;;;;6.37;74.45;101133.94;4923653;29;20411;-80
2021/04/15 06:12:53;;;;;;;19.20;12.00;;;;;;;6.38;74.49;101130.31;4923821;29;20072;-80
2021/04/15 06:16:10;;;;;;;21.80;15.93;;;;;;;6.44;74.72;101129.97;4900298;28;20062;-79
2021/04/15 06:19:20;;;;;;;19.10;11.82;;;;;;;6.54;74.70;101136.50;4940422;28;20193;-82
2021/04/15 06:22:29;;;;;;;15.35;11.00;;;;;;;6.52;74.45;101143.69;4931566;29;20054;-79
2021/04/15 06:25:43;;;;;;;12.55;10.43;;;;;;;6.54;73.51;101147.16;4929483;29;20066;-82
2021/04/15 06:28:52;;;;;;;12.93;9.38;;;;;;;6.68;72.74;101157.00;4965320;28;20404;-80
2021/04/15 06:32:02;;;;;;;11.50;10.27;;;;;;;6.88;72.37;101162.88;4997322;28;20041;-77
2021/04/15 06:35:13;;;;;;;14.23;10.15;;;;;;;7.23;71.23;101155.41;4988154;28;20045;-77
2021/04/15 06:38:30;;;;;;;13.95;10.20;;;;;;;7.59;70.54;101161.16;4978313;28;20171;-75
2021/04/15 06:41:59;;;;;;;11.63;9.23;;;;;;;8.10;69.72;101164.13;4991933;28;20145;-78
2021/04/15 06:45:11;;;;;;;12.75;9.85;;;;;;;8.10;68.75;101169.50;5013497;28;20047;-77
2021/04/15 06:48:51;;;;;;;12.93;8.73;;;;;;;7.63;69.26;101165.31;5069484;28;20396;-77
2021/04/15 06:52:24;;;;;;;9.98;9.00;;;;;;;7.49;70.13;101164.47;5079503;28;20584;-82
2021/04/15 06:55:35;;;;;;;11.25;9.85;;;;;;;7.61;70.32;101161.91;5088917;28;20047;-80
2021/04/15 06:59:22;;;;;;;10.90;8.90;;;;;;;7.66;68.75;101161.59;5076847;28;20062;-82
2021/04/15 07:02:43;;;;;;;11.63;10.02;;;;;;;7.51;69.10;101166.09;5074730;28;20043;-80
2021/04/15 07:05:56;;;;;;;14.48;10.63;;;;;;;7.49;69.37;101164.47;5093425;28;20067;-80
2021/04/15 07:09:07;;;;;;;11.75;9.48;;;;;;;7.54;69.78;101167.72;5081819;28;20062;-80
2021/04/15 07:12:29;;;;;;;11.68;9.18;;;;;;;7.68;69.57;101165.03;5092876;28;20067;-80
2021/04/15 07:15:40;;;;;;;10.52;8.55;;;;;;;8.04;68.56;101160.03;5069554;28;20051;-80
2021/04/15 07:19:03;;;;;;;10.65;8.77;;;;;;;8.18;67.68;101160.00;5069484;28;20506;-80
2021/04/15 07:22:11;;;;;;;12.93;9.10;;;;;;;8.40;66.47;101162.16;5070059;28;20493;-80
2021/04/15 07:25:40;;;;;;;14.38;9.68;;;;;;;8.69;65.99;101160.22;5080982;28;20055;-80
2021/04/15 07:29:12;;;;;;;10.90;8.57;;;;;;;8.98;64.38;101169.81;5069831;28;20403;-79
2021/04/15 07:32:30;;;;;;;10.48;8.30;;;;;;;9.57;61.04;101173.72;5070067;28;20495;-79
2021/04/15 07:35:57;;;;;;;9.23;7.70;;;;;;;9.60;60.36;101174.31;5093021;28;20471;-80
2021/04/15 07:39:43;;;;;;;11.55;8.52;;;;;;;9.46;61.49;101181.63;5081095;28;20055;-80
2021/04/15 07:43:43;;;;;;;11.00;7.70;;;;;;;10.43;58.32;101170.09;5068431;28;20058;-80
2021/04/15 07:47:32;;;;;;;11.13;7.57;;;;;;;10.23;59.13;101173.38;5063662;28;20487;-80
2021/04/15 07:51:01;;;;;;;44.05;36.25;;;;;;;10.09;59.33;101176.19;5081445;28;20067;-80
2021/04/15 07:54:24;;;;;;;15.48;11.20;;;;;;;10.14;59.08;101172.25;5092989;28;20048;-80
2021/04/15 07:58:05;;;;;;;9.52;8.13;;;;;;;10.30;57.95;101180.00;5093635;28;20036;-80
2021/04/15 08:01:27;;;;;;;12.55;7.28;;;;;;;10.71;57.62;101185.88;5069432;28;20058;-80
2021/04/15 08:04:51;;;;;;;8.88;7.18;;;;;;;11.15;56.00;101185.16;5081073;28;20407;-80
2021/04/15 08:08:25;;;;;;;11.25;7.40;;;;;;;11.18;56.02;101190.31;5069209;28;20051;-80
2021/04/15 08:11:36;;;;;;;10.90;7.35;;;;;;;11.52;54.25;101189.41;5081059;28;20055;-80
2021/04/15 08:14:47;;;;;;;7.93;6.45;;;;;;;11.74;52.79;101180.53;5080833;28;20047;-80
2021/04/15 08:18:05;;;;;;;8.20;6.18;;;;;;;11.92;51.38;101179.06;5081014;28;20047;-80
2021/04/15 08:21:25;;;;;;;8.15;6.43;;;;;;;13.54;48.13;101170.75;5069483;28;20047;-80
2021/04/15 08:24:34;;;;;;;10.43;6.55;;;;;;;14.19;46.48;101178.41;5080819;28;20391;-80
2021/04/15 08:27:57;;;;;;;9.27;6.15;;;;;;;15.69;42.19;101176.03;5080347;28;20490;-80
2021/04/15 08:31:08;;;;;;;;;;;;;;;16.53;39.70;101172.22;5092676;28;20052;-80
2021/04/15 08:34:46;;;;;;;7.35;4.72;;;;;;;17.37;38.23;101175.38;5069054;28;19916;-81
2021/04/15 08:38:17;;;;;;;7.80;6.15;;;;;;;17.29;38.30;101178.88;5071931;28;20051;-80
2021/04/15 08:41:43;;;;;;;8.07;5.70;;;;;;;16.64;40.56;101177.41;5084411;28;20138;-80
2021/04/15 08:45:01;;;;;;;7.22;6.00;;;;;;;15.90;41.71;101178.53;5084645;28;20055;-80
2021/04/15 08:48:44;;;;;;;9.05;5.95;;;;;;;15.27;42.74;101183.66;5072811;28;20051;-80
2021/04/15 08:52:29;;;;;;;6.57;5.30;;;;;;;15.83;43.00;101177.41;5084444;28;20048;-80
2021/04/15 08:55:36;;;;;;;7.82;5.80;;;;;;;15.06;43.92;101179.41;5042717;28;20490;-80
2021/04/15 08:59:34;;;;;;;6.22;5.63;;;;;;;14.58;45.06;101182.06;5031228;28;20634;-80
2021/04/15 09:02:47;;;;;;;11.00;6.13;;;;;;;14.01;46.71;101183.59;4964492;28;20545;-79
2021/04/15 09:06:25;;;;;;;6.65;5.70;;;;;;;14.09;46.88;101181.09;4964071;28;20054;-79
2021/04/15 09:09:49;;;;;;;8.48;5.97;;;;;;;13.39;48.13;101172.06;4963889;28;20050;-81
2021/04/15 09:13:25;;;;;;;7.47;5.85;;;;;;;13.50;47.86;101162.06;4952606;28;20430;-80
2021/04/15 09:16:40;;;;;;;7.45;6.25;;;;;;;13.02;48.64;101163.56;4963857;28;20049;-78
2021/04/15 09:19:53;;;;;;;6.88;5.70;;;;;;;12.45;50.55;101169.28;4941612;28;20054;-79
2021/04/15 09:23:19;;;;;;;6.68;5.55;;;;;;;12.57;50.57;101162.03;4963966;28;20171;-80
2021/04/15 09:26:53;;;;;;;7.40;6.03;;;;;;;12.07;51.31;101163.50;4961021;28;20053;-79
2021/04/15 09:30:08;;;;;;;7.10;6.05;;;;;;;12.28;52.70;101154.53;4960570;28;20045;-79
2021/04/15 09:33:39;;;;;;;8.07;6.53;;;;;;;12.61;51.93;101163.50;4971838;28;20053;-80
2021/04/15 09:37:21;;;;;;;7.70;6.45;;;;;;;12.78;50.25;101157.56;5049667;28;20056;-80
2021/04/15 09:40:32;;;;;;;10.13;6.03;;;;;;;12.90;50.04;101156.50;5019101;28;20064;-80
2021/04/15 09:43:42;;;;;;;5.85;5.10;;;;;;;12.77;48.88;101158.53;5019112;28;20068;-79
2021/04/15 09:46:53;;;;;;;23.33;17.92;;;;;;;12.83;48.72;101153.50;5030400;28;20048;-78
2021/04/15 09:50:08;;;;;;;9.43;5.63;;;;;;;12.74;49.12;101151.56;5030139;28;20041;-79
2021/04/15 09:53:42;;;;;;;5.55;4.60;;;;;;;12.75;49.22;101144.34;5018695;28;20510;-79
2021/04/15 09:56:52;;;;;;;;;;;;;;;12.50;49.71;101139.28;5042134;28;20154;-80
2021/04/15 10:00:11;;;;;;;5.25;4.20;;;;;;;12.71;49.65;101134.81;5029852;28;19917;-81
2021/04/15 10:03:50;;;;;;;5.18;3.75;;;;;;;12.55;48.39;101131.69;5018562;28;20136;-79
2021/04/15 10:07:07;;;;;;;6.93;3.67;;;;;;;12.67;48.93;101127.94;5041429;28;20175;-80
2021/04/15 10:10:35;;;;;;;5.82;4.40;;;;;;;12.49;49.09;101137.59;5030031;28;20120;-79
2021/04/15 10:14:04;;;;;;;5.88;3.95;;;;;;;12.61;49.13;101126.66;5039353;28;20052;-79
2021/04/15 10:17:37;;;;;;;7.00;3.80;;;;;;;12.50;48.67;101126.69;5062433;28;20490;-80
2021/04/15 10:21:02;;;;;;;8.38;4.75;;;;;;;12.48;50.47;101125.09;5073839;28;20486;-80
2021/04/15 10:24:13;;;;;;;5.25;3.53;;;;;;;12.46;48.14;101116.31;5050571;28;20115;-79
2021/04/15 10:27:44;;;;;;;7.00;3.83;;;;;;;12.21;49.24;101126.41;5050625;28;20048;-79
2021/04/15 10:31:02;;;;;;;6.68;3.60;;;;;;;12.40;49.39;101131.97;5062425;28;20056;-79
2021/04/15 10:34:25;;;;;;;6.38;3.92;;;;;;;12.31;50.37;101123.81;5062533;28;20391;-80
2021/04/15 10:37:57;;;;;;;7.00;4.15;;;;;;;12.28;50.77;101119.53;5061856;28;20067;-80
2021/04/15 10:41:35;;;;;;;5.45;4.25;;;;;;;12.26;51.85;101120.66;5062646;28;20491;-80
2021/04/15 10:44:57;;;;;;;5.90;4.65;;;;;;;12.07;51.28;101121.28;5073295;28;20068;-78
2021/04/15 10:48:44;;;;;;;6.20;4.05;;;;;;;12.51;51.12;101101.47;5050733;28;20075;-79
2021/04/15 10:52:12;;;;;;;7.25;4.10;;;;;;;12.63;50.00;101115.75;5053963;28;20064;-78
2021/04/15 10:55:25;;;;;;;7.20;4.63;;;;;;;12.58;50.28;101118.81;5068614;28;20044;-78
2021/04/15 10:58:36;;;;;;;9.43;5.20;;;;;;;12.67;51.27;101101.00;5061331;28;20396;-80
2021/04/15 11:01:46;;;;;;;6.05;4.28;;;;;;;12.76;51.37;101087.66;5061899;28;20400;-80
2021/04/15 11:04:54;;;;;;;6.53;4.63;;;;;;;12.60;51.51;101098.00;5061822;28;20387;-81
2021/04/15 11:08:17;;;;;;;7.38;4.80;;;;;;;12.66;51.01;101083.16;5061772;28;20380;-80
2021/04/15 11:11:27;;;;;;;7.70;4.53;;;;;;;12.66;51.28;101091.25;5051886;28;20048;-80
2021/04/15 11:14:57;;;;;;;7.55;4.72;;;;;;;12.99;51.60;101075.72;5081442;28;20051;-80
2021/04/15 11:18:09;;;;;;;5.43;4.57;;;;;;;12.86;50.26;101085.03;5076813;28;20391;-80
2021/04/15 11:21:28;;;;;;;8.57;5.47;;;;;;;12.67;51.49;101093.81;5081355;28;20055;-79
2021/04/15 11:24:34;;;;;;;5.55;4.95;;;;;;;12.41;52.89;101092.47;5093323;28;20047;-78
2021/04/15 11:27:39;;;;;;;9.60;5.10;;;;;;;12.57;53.48;101097.38;5093215;28;20043;-79
2021/04/15 11:30:45;;;;;;;8.75;5.05;;;;;;;12.59;56.94;101092.75;5069997;28;20395;-78
2021/04/15 11:33:52;;;;;;;7.03;4.60;;;;;;;11.66;58.28;101107.63;5069721;28;20051;-80
2021/04/15 11:37:08;;;;;;;7.50;4.30;;;;;;;11.32;59.95;101097.84;5058659;28;20513;-78
2021/04/15 11:40:31;;;;;;;6.15;4.97;;;;;;;11.22;60.99;101095.03;5081421;28;20525;-79
2021/04/15 11:43:38;;;;;;;9.83;4.80;;;;;;;11.48;61.14;101098.34;5081195;28;20063;-78
2021/04/15 11:46:49;;;;;;;10.90;4.60;;;;;;;11.50;59.50;101099.94;5069909;28;20289;-80
2021/04/15 11:50:18;;;;;;;6.60;4.47;;;;;;;11.37;58.82;101095.66;5092955;28;20051;-79
2021/04/15 11:53:47;;;;;;;6.95;4.38;;;;;;;11.17;58.10;101107.13;5069774;28;20047;-79
2021/04/15 11:56:52;;;;;;;5.15;4.38;;;;;;;10.77;59.31;101094.09;5081268;28;20062;-79
2021/04/15 12:00:14;;;;;;;9.13;4.35;;;;;;;10.86;59.58;101108.66;5092636;28;20079;-80
2021/04/15 12:03:21;;;;;;;6.65;4.40;;;;;;;10.81;59.89;101098.25;5080922;28;20048;-80
2021/04/15 12:06:34;;;;;;;5.90;4.10;;;;;;;10.97;59.80;101100.59;5081143;28;20051;-80
2021/04/15 12:09:40;;;;;;;8.52;4.78;;;;;;;11.17;60.04;101091.00;5092664;28;20059;-79
2021/04/15 12:12:59;;;;;;;6.60;4.35;;;;;;;11.20;60.03;101090.75;5084683;28;20055;-80
2021/04/15 12:16:21;;;;;;;5.85;4.38;;;;;;;11.02;59.93;101087.69;5073128;28;20047;-79
2021/04/15 12:19:50;;;;;;;5.32;4.45;;;;;;;10.75;60.03;101096.03;5073069;28;20055;-79
2021/04/15 12:23:35;;;;;;;7.43;5.28;;;;;;;10.79;61.07;101088.63;5075001;28;20139;-80
2021/04/15 12:27:06;;;;;;;7.53;5.28;;;;;;;10.70;61.95;101083.94;5051453;28;20371;-80
2021/04/15 12:30:30;;;;;;;6.68;4.95;;;;;;;10.63;62.59;101104.19;5051761;28;20127;-80
2021/04/15 12:34:03;;;;;;;8.10;5.07;;;;;;;10.52;64.78;101104.97;5051818;28;20044;-80
2021/04/15 12:37:26;;;;;;;6.82;5.30;;;;;;;10.39;66.13;101093.47;5051539;28;20047;-80
2021/04/15 12:40:52;;;;;;;6.25;4.88;;;;;;;10.17;67.47;101102.25;5051528;28;20143;-79
2021/04/15 12:44:08;;;;;;;6.70;4.78;;;;;;;10.06;68.20;101099.50;5051136;28;20063;-79
2021/04/15 12:47:16;;;;;;;7.57;5.13;;;;;;;10.00;68.87;101094.56;5051599;28;20055;-81
2021/04/15 12:50:23;;;;;;;8.05;5.32;;;;;;;10.05;70.67;101099.63;5051169;28;20043;-80
2021/04/15 12:53:32;;;;;;;7.65;5.38;;;;;;;10.10;70.60;101098.28;5051262;28;20055;-80
2021/04/15 12:56:40;;;;;;;7.10;5.80;;;;;;;10.16;71.09;101092.50;5050926;28;20067;-80
2021/04/15 12:59:47;;;;;;;7.35;5.05;;;;;;;10.15;69.98;101095.28;5061026;28;20502;-81
2021/04/15 13:02:52;;;;;;;6.65;4.88;;;;;;;10.15;70.33;101085.41;5072246;28;20051;-79
2021/04/15 13:06:01;;;;;;;7.45;6.25;;;;;;;10.19;71.24;101084.25;5083987;28;20055;-80
2021/04/15 13:09:05;;;;;;;11.15;5.80;;;;;;;10.23;70.61;101084.84;5071790;28;20048;-77
2021/04/15 13:12:18;;;;;;;10.10;5.32;;;;;;;10.08;69.63;101084.13;5083451;28;20055;-81
2021/04/15 13:15:23;;;;;;;8.40;5.00;;;;;;;10.00;69.19;101086.50;5072105;28;20067;-81
2021/04/15 13:18:39;;;;;;;9.27;5.18;;;;;;;9.98;68.52;101090.28;5083652;28;20047;-78
2021/04/15 13:21:59;;;;;;;8.48;4.97;;;;;;;9.81;69.84;101089.69;5083092;28;20074;-80
2021/04/15 13:25:03;;;;;;;8.50;5.10;;;;;;;9.65;70.60;101093.63;5071947;28;20043;-81
2021/04/15 13:28:11;;;;;;;36.95;28.17;;;;;;;9.61;71.50;101092.97;5095238;28;20047;-81
2021/04/15 13:31:35;;;;;;;16.42;10.05;;;;;;;9.60;72.76;101090.41;5071709;28;20497;-80
2021/04/15 13:35:00;;;;;;;8.13;5.03;;;;;;;9.27;73.95;101088.31;5071619;28;20039;-80
2021/04/15 13:38:42;;;;;;;8.27;4.90;;;;;;;9.41;74.06;101082.81;5071473;28;20055;-80
2021/04/15 13:41:57;;;;;;;6.55;5.20;;;;;;;9.47;73.48;101084.22;5077678;28;20047;-80
2021/04/15 13:45:10;;;;;;;6.80;4.93;;;;;;;9.28;72.62;101070.41;5071133;28;20067;-81
2021/04/15 13:48:43;;;;;;;6.95;4.47;;;;;;;9.32;72.54;101074.59;5094710;28;20047;-80
2021/04/15 13:51:48;;;;;;;7.03;4.68;;;;;;;9.35;72.68;101075.22;5070984;28;20047;-80
2021/04/15 13:54:53;;;;;;;5.05;4.53;;;;;;;9.53;72.58;101060.50;5083275;28;20053;-80
2021/04/15 13:57:58;;;;;;;6.95;5.18;;;;;;;9.52;74.03;101056.13;5082978;28;20070;-79
2021/04/15 14:01:52;;;;;;;8.65;5.78;;;;;;;9.76;73.59;101059.69;5082846;28;20050;-80
2021/04/15 14:04:59;;;;;;;6.22;4.80;;;;;;;9.81;72.86;101044.13;5021713;28;20049;-79
2021/04/15 14:08:29;;;;;;;6.85;5.40;;;;;;;9.93;73.63;101046.84;4999080;28;20048;-80
2021/04/15 14:11:45;;;;;;;7.70;4.90;;;;;;;9.95;72.28;101050.31;5010449;28;20072;-80
2021/04/15 14:14:53;;;;;;;;;;;;;;;10.05;71.84;101048.66;5010710;28;20048;-80
2021/04/15 14:18:31;;;;;;;5.80;5.03;;;;;;;10.31;71.84;101043.06;5021291;28;19912;-81
2021/04/15 14:21:39;;;;;;;9.43;5.28;;;;;;;10.32;71.12;101027.84;5020995;28;20141;-81
2021/04/15 14:24:50;;;;;;;8.52;5.60;;;;;;;10.19;70.14;101032.41;4998350;28;20052;-80
2021/04/15 14:27:56;;;;;;;6.22;4.95;;;;;;;10.24;69.64;101027.56;5032676;28;20049;-80
2021/04/15 14:31:23;;;;;;;6.20;4.55;;;;;;;10.55;68.99;101018.84;5009590;28;20165;-80
2021/04/15 14:34:37;;;;;;;7.85;4.95;;;;;;;10.75;68.96;101018.16;4998022;28;20045;-80
2021/04/15 14:37:44;;;;;;;7.30;4.70;;;;;;;10.75;67.94;101009.25;5009663;28;20141;-79
2021/04/15 14:40:56;;;;;;;5.72;4.80;;;;;;;10.86;67.66;101001.22;5051144;28;20055;-80
2021/04/15 14:44:09;;;;;;;8.38;4.60;;;;;;;11.08;67.03;101001.25;5082019;28;20071;-81
2021/04/15 14:47:35;;;;;;;6.55;4.53;;;;;;;11.12;65.11;100997.31;5082109;28;20051;-81
2021/04/15 14:50:40;;;;;;;6.78;4.88;;;;;;;10.89;65.80;100996.44;5082027;28;20486;-80
2021/04/15 14:53:45;;;;;;;6.03;5.00;;;;;;;10.94;66.62;100998.78;5081626;28;20043;-78
2021/04/15 14:56:54;;;;;;;11.05;5.50;;;;;;;10.89;65.28;101001.81;5081572;28;20391;-81
2021/04/15 15:00:03;;;;;;;6.70;4.80;;;;;;;10.72;65.00;101014.84;5093297;28;20110;-79
2021/04/15 15:03:09;;;;;;;7.68;4.53;;;;;;;10.44;64.88;101016.16;5081605;28;20047;-80
2021/04/15 15:06:14;;;;;;;6.50;4.63;;;;;;;10.47;65.48;100993.59;5069979;28;20051;-80
2021/04/15 15:09:24;;;;;;;5.63;3.92;;;;;;;10.56;65.31;100992.88;5069620;28;20063;-81
2021/04/15 15:12:31;;;;;;;9.10;4.30;;;;;;;10.43;64.92;101003.69;5080897;28;20051;-80
2021/04/15 15:15:38;;;;;;;5.40;4.15;;;;;;;10.38;65.75;101005.88;5081592;28;20043;-80
2021/04/15 15:18:46;;;;;;;5.32;4.13;;;;;;;10.46;65.47;100992.72;5081317;28;20047;-79